sensor_id;sensor_type;location;lat;lon;timestamp;temperature;humidity
1686;DHT22;840;47.980;7.830;2023-08-21T00:01:29;26.20;99.90
1686;DHT22;840;47.980;7.830;2023-08-21T00:03:56;26.30;99.90
1686;DHT22;840;47.980;7.830;2023-08-21T00:06:23;26.30;99.90
1686;DHT22;840;47.980;7.830;2023-08-21T00:08:49;26.20;99.90
1686;DHT22;840;47.980;7.830;2023-08-21T00:11:16;26.20;99.90
1686;DHT22;840;47.980;7.830;2023-08-21T00:13:44;26.10;99.90
1686;DHT22;840;47.980;7.830;2023-08-21T00:16:13;26.10;99.90
1686;DHT22;840;47.980;7.830;2023-08-21T00:18:40;26.00;99.90
1686;DHT22;840;47.980;7.830;2023-08-21T00:21:06;26.00;99.90
1686;DHT22;840;47.980;7.830;2023-08-21T00:23:33;25.90;99.90
1686;DHT22;840;47.980;7.830;2023-08-21T00:26:02;25.90;99.90
1686;DHT22;840;47.980;7.830;2023-08-21T00:28:29;25.90;99.90
1686;DHT22;840;47.980;7.830;2023-08-21T00:31:02;25.90;99.90
1686;DHT22;840;47.980;7.830;2023-08-21T00:33:43;25.90;99.90
1686;DHT22;840;47.980;7.830;2023-08-21T00:36:09;25.90;99.90
1686;DHT22;840;47.980;7.830;2023-08-21T00:38:36;25.90;99.90
1686;DHT22;840;47.980;7.830;2023-08-21T00:41:03;25.80;99.90
1686;DHT22;840;47.980;7.830;2023-08-21T00:43:29;25.90;99.90
1686;DHT22;840;47.980;7.830;2023-08-21T00:45:56;25.90;99.90
1686;DHT22;840;47.980;7.830;2023-08-21T00:48:25;25.90;99.90
1686;DHT22;840;47.980;7.830;2023-08-21T00:50:53;25.90;99.90
1686;DHT22;840;47.980;7.830;2023-08-21T00:53:20;25.90;99.90
1686;DHT22;840;47.980;7.830;2023-08-21T00:55:46;25.80;99.90
1686;DHT22;840;47.980;7.830;2023-08-21T00:58:13;25.80;99.90
1686;DHT22;840;47.980;7.830;2023-08-21T01:00:41;25.80;99.90
1686;DHT22;840;47.980;7.830;2023-08-21T01:03:08;25.80;99.90
1686;DHT22;840;47.980;7.830;2023-08-21T01:05:37;25.80;99.90
1686;DHT22;840;47.980;7.830;2023-08-21T01:08:05;25.80;99.90
1686;DHT22;840;47.980;7.830;2023-08-21T01:10:43;25.80;99.90
1686;DHT22;840;47.980;7.830;2023-08-21T01:13:31;25.80;99.90
1686;DHT22;840;47.980;7.830;2023-08-21T01:16:01;25.70;99.90
1686;DHT22;840;47.980;7.830;2023-08-21T01:18:30;25.70;99.90
1686;DHT22;840;47.980;7.830;2023-08-21T01:21:01;25.60;99.90
1686;DHT22;840;47.980;7.830;2023-08-21T01:23:34;25.60;99.90
1686;DHT22;840;47.980;7.830;2023-08-21T01:26:01;25.60;99.90
1686;DHT22;840;47.980;7.830;2023-08-21T01:28:28;25.60;99.90
1686;DHT22;840;47.980;7.830;2023-08-21T01:31:01;25.60;99.90
1686;DHT22;840;47.980;7.830;2023-08-21T01:33:30;25.60;99.90
1686;DHT22;840;47.980;7.830;2023-08-21T01:36:02;25.50;99.90
1686;DHT22;840;47.980;7.830;2023-08-21T01:38:31;25.50;99.90
1686;DHT22;840;47.980;7.830;2023-08-21T01:41:00;25.50;99.90
1686;DHT22;840;47.980;7.830;2023-08-21T01:43:27;25.50;99.90
1686;DHT22;840;47.980;7.830;2023-08-21T01:45:54;25.50;99.90
1686;DHT22;840;47.980;7.830;2023-08-21T01:48:21;25.50;99.90
1686;DHT22;840;47.980;7.830;2023-08-21T01:50:48;25.40;99.90
1686;DHT22;840;47.980;7.830;2023-08-21T01:53:15;25.40;99.90
1686;DHT22;840;47.980;7.830;2023-08-21T01:55:42;25.40;99.90
1686;DHT22;840;47.980;7.830;2023-08-21T01:58:10;25.40;99.90
1686;DHT22;840;47.980;7.830;2023-08-21T02:00:36;25.40;99.90
1686;DHT22;840;47.980;7.830;2023-08-21T02:03:03;25.40;99.90
1686;DHT22;840;47.980;7.830;2023-08-21T02:05:30;25.40;99.90
1686;DHT22;840;47.980;7.830;2023-08-21T02:07:57;25.40;99.90
1686;DHT22;840;47.980;7.830;2023-08-21T02:10:24;25.30;99.90
1686;DHT22;840;47.980;7.830;2023-08-21T02:12:50;25.30;99.90
1686;DHT22;840;47.980;7.830;2023-08-21T02:15:19;25.20;99.90
1686;DHT22;840;47.980;7.830;2023-08-21T02:17:47;25.20;99.90
1686;DHT22;840;47.980;7.830;2023-08-21T02:20:14;25.10;99.90
1686;DHT22;840;47.980;7.830;2023-08-21T02:22:41;25.10;99.90
1686;DHT22;840;47.980;7.830;2023-08-21T02:25:08;25.10;99.90
1686;DHT22;840;47.980;7.830;2023-08-21T02:27:35;25.10;99.90
1686;DHT22;840;47.980;7.830;2023-08-21T02:30:02;25.10;99.90
1686;DHT22;840;47.980;7.830;2023-08-21T02:32:30;25.10;99.90
1686;DHT22;840;47.980;7.830;2023-08-21T02:34:57;25.10;99.90
1686;DHT22;840;47.980;7.830;2023-08-21T02:37:24;25.10;99.90
1686;DHT22;840;47.980;7.830;2023-08-21T02:39:50;25.10;99.90
1686;DHT22;840;47.980;7.830;2023-08-21T02:42:17;25.10;99.90
1686;DHT22;840;47.980;7.830;2023-08-21T02:44:44;25.10;99.90
1686;DHT22;840;47.980;7.830;2023-08-21T02:47:10;25.00;99.90
1686;DHT22;840;47.980;7.830;2023-08-21T02:49:39;25.00;99.90
1686;DHT22;840;47.980;7.830;2023-08-21T02:52:05;24.90;99.90
1686;DHT22;840;47.980;7.830;2023-08-21T02:54:32;24.90;99.90
1686;DHT22;840;47.980;7.830;2023-08-21T02:56:59;24.80;99.90
1686;DHT22;840;47.980;7.830;2023-08-21T02:59:26;24.80;99.90
1686;DHT22;840;47.980;7.830;2023-08-21T03:01:52;24.80;99.90
1686;DHT22;840;47.980;7.830;2023-08-21T03:04:19;24.80;99.90
1686;DHT22;840;47.980;7.830;2023-08-21T03:06:47;24.70;99.90
1686;DHT22;840;47.980;7.830;2023-08-21T03:09:14;24.70;99.90
1686;DHT22;840;47.980;7.830;2023-08-21T03:11:41;24.70;99.90
1686;DHT22;840;47.980;7.830;2023-08-21T03:14:08;24.60;99.90
1686;DHT22;840;47.980;7.830;2023-08-21T03:16:34;24.60;99.90
1686;DHT22;840;47.980;7.830;2023-08-21T03:19:01;24.60;99.90
1686;DHT22;840;47.980;7.830;2023-08-21T03:21:28;24.50;99.90
1686;DHT22;840;47.980;7.830;2023-08-21T03:23:57;24.50;99.90
1686;DHT22;840;47.980;7.830;2023-08-21T03:26:25;24.50;99.90
1686;DHT22;840;47.980;7.830;2023-08-21T03:28:52;24.50;99.90
1686;DHT22;840;47.980;7.830;2023-08-21T03:31:19;24.50;99.90
1686;DHT22;840;47.980;7.830;2023-08-21T03:33:46;24.50;99.90
1686;DHT22;840;47.980;7.830;2023-08-21T03:36:13;24.50;99.90
1686;DHT22;840;47.980;7.830;2023-08-21T03:38:39;24.40;99.90
1686;DHT22;840;47.980;7.830;2023-08-21T03:41:08;24.40;99.90
1686;DHT22;840;47.980;7.830;2023-08-21T03:43:34;24.40;99.90
1686;DHT22;840;47.980;7.830;2023-08-21T03:46:01;24.40;99.90
1686;DHT22;840;47.980;7.830;2023-08-21T03:48:28;24.40;99.90
1686;DHT22;840;47.980;7.830;2023-08-21T03:50:54;24.40;99.90
1686;DHT22;840;47.980;7.830;2023-08-21T03:53:21;24.40;99.90
1686;DHT22;840;47.980;7.830;2023-08-21T03:55:51;24.40;99.90
1686;DHT22;840;47.980;7.830;2023-08-21T03:58:19;24.40;99.90
1686;DHT22;840;47.980;7.830;2023-08-21T04:00:46;24.40;99.90
1686;DHT22;840;47.980;7.830;2023-08-21T04:03:12;24.40;99.90
1686;DHT22;840;47.980;7.830;2023-08-21T04:05:39;24.30;99.90
1686;DHT22;840;47.980;7.830;2023-08-21T04:08:06;24.30;99.90
1686;DHT22;840;47.980;7.830;2023-08-21T04:10:33;24.30;99.90
1686;DHT22;840;47.980;7.830;2023-08-21T04:13:00;24.30;99.90
1686;DHT22;840;47.980;7.830;2023-08-21T04:15:28;24.30;99.90
1686;DHT22;840;47.980;7.830;2023-08-21T04:17:54;24.20;99.90
1686;DHT22;840;47.980;7.830;2023-08-21T04:20:21;24.20;99.90
1686;DHT22;840;47.980;7.830;2023-08-21T04:22:48;24.10;99.90
1686;DHT22;840;47.980;7.830;2023-08-21T04:25:15;24.10;99.90
1686;DHT22;840;47.980;7.830;2023-08-21T04:27:42;24.00;99.90
1686;DHT22;840;47.980;7.830;2023-08-21T04:30:10;24.00;99.90
1686;DHT22;840;47.980;7.830;2023-08-21T04:32:38;24.00;99.90
1686;DHT22;840;47.980;7.830;2023-08-21T04:35:06;24.00;99.90
1686;DHT22;840;47.980;7.830;2023-08-21T04:37:34;24.00;99.90
1686;DHT22;840;47.980;7.830;2023-08-21T04:40:01;24.00;99.90
1686;DHT22;840;47.980;7.830;2023-08-21T04:42:28;24.00;99.90
1686;DHT22;840;47.980;7.830;2023-08-21T04:44:55;24.00;99.90
1686;DHT22;840;47.980;7.830;2023-08-21T04:47:23;23.90;99.90
1686;DHT22;840;47.980;7.830;2023-08-21T04:49:51;23.90;99.90
1686;DHT22;840;47.980;7.830;2023-08-21T04:52:18;24.00;99.90
1686;DHT22;840;47.980;7.830;2023-08-21T04:54:44;24.00;99.90
1686;DHT22;840;47.980;7.830;2023-08-21T04:57:11;24.00;99.90
1686;DHT22;840;47.980;7.830;2023-08-21T04:59:38;24.10;99.90
1686;DHT22;840;47.980;7.830;2023-08-21T05:02:05;24.10;99.90
1686;DHT22;840;47.980;7.830;2023-08-21T05:04:32;24.10;99.90
1686;DHT22;840;47.980;7.830;2023-08-21T05:07:00;24.10;99.90
1686;DHT22;840;47.980;7.830;2023-08-21T05:09:27;24.10;99.90
1686;DHT22;840;47.980;7.830;2023-08-21T05:11:54;24.10;99.90
1686;DHT22;840;47.980;7.830;2023-08-21T05:14:21;24.10;99.90
1686;DHT22;840;47.980;7.830;2023-08-21T05:16:48;24.10;99.90
1686;DHT22;840;47.980;7.830;2023-08-21T05:19:15;24.10;99.90
1686;DHT22;840;47.980;7.830;2023-08-21T05:21:42;24.10;99.90
1686;DHT22;840;47.980;7.830;2023-08-21T05:24:10;24.10;99.90
1686;DHT22;840;47.980;7.830;2023-08-21T05:26:38;24.20;99.90
1686;DHT22;840;47.980;7.830;2023-08-21T05:29:05;24.20;99.90
1686;DHT22;840;47.980;7.830;2023-08-21T05:31:34;24.20;99.90
1686;DHT22;840;47.980;7.830;2023-08-21T05:34:01;24.20;99.90
1686;DHT22;840;47.980;7.830;2023-08-21T05:36:28;24.20;99.90
1686;DHT22;840;47.980;7.830;2023-08-21T05:38:56;24.20;99.90
1686;DHT22;840;47.980;7.830;2023-08-21T05:41:24;24.30;99.90
1686;DHT22;840;47.980;7.830;2023-08-21T05:43:51;24.30;99.90
1686;DHT22;840;47.980;7.830;2023-08-21T05:46:18;24.40;99.90
1686;DHT22;840;47.980;7.830;2023-08-21T05:48:44;24.40;99.90
1686;DHT22;840;47.980;7.830;2023-08-21T05:51:11;24.40;99.90
1686;DHT22;840;47.980;7.830;2023-08-21T05:53:38;24.50;99.90
1686;DHT22;840;47.980;7.830;2023-08-21T05:56:05;24.50;99.90
1686;DHT22;840;47.980;7.830;2023-08-21T05:58:33;24.60;99.90
1686;DHT22;840;47.980;7.830;2023-08-21T06:01:00;24.60;99.90
1686;DHT22;840;47.980;7.830;2023-08-21T06:03:26;24.70;99.90
1686;DHT22;840;47.980;7.830;2023-08-21T06:05:53;24.70;99.90
1686;DHT22;840;47.980;7.830;2023-08-21T06:08:20;24.80;99.90
1686;DHT22;840;47.980;7.830;2023-08-21T06:10:51;24.80;99.90
1686;DHT22;840;47.980;7.830;2023-08-21T06:13:33;24.90;99.90
1686;DHT22;840;47.980;7.830;2023-08-21T06:15:59;24.90;99.90
1686;DHT22;840;47.980;7.830;2023-08-21T06:18:26;25.00;99.90
1686;DHT22;840;47.980;7.830;2023-08-21T06:20:54;25.10;99.90
1686;DHT22;840;47.980;7.830;2023-08-21T06:23:21;25.20;99.90
1686;DHT22;840;47.980;7.830;2023-08-21T06:25:48;25.20;99.90
1686;DHT22;840;47.980;7.830;2023-08-21T06:28:15;25.30;99.90
1686;DHT22;840;47.980;7.830;2023-08-21T06:30:44;25.30;99.90
1686;DHT22;840;47.980;7.830;2023-08-21T06:33:11;25.40;99.90
1686;DHT22;840;47.980;7.830;2023-08-21T06:35:37;25.30;99.90
1686;DHT22;840;47.980;7.830;2023-08-21T06:38:04;25.30;99.90
1686;DHT22;840;47.980;7.830;2023-08-21T06:40:31;25.30;99.90
1686;DHT22;840;47.980;7.830;2023-08-21T06:42:58;25.40;99.90
1686;DHT22;840;47.980;7.830;2023-08-21T06:45:25;25.50;99.90
1686;DHT22;840;47.980;7.830;2023-08-21T06:47:55;25.50;99.90
1686;DHT22;840;47.980;7.830;2023-08-21T06:50:22;25.50;99.90
1686;DHT22;840;47.980;7.830;2023-08-21T06:52:48;25.50;99.90
1686;DHT22;840;47.980;7.830;2023-08-21T06:55:15;25.50;99.90
1686;DHT22;840;47.980;7.830;2023-08-21T06:57:42;25.50;99.90
1686;DHT22;840;47.980;7.830;2023-08-21T07:00:10;25.40;99.90
1686;DHT22;840;47.980;7.830;2023-08-21T07:02:37;25.50;99.90
1686;DHT22;840;47.980;7.830;2023-08-21T07:05:06;25.60;99.90
1686;DHT22;840;47.980;7.830;2023-08-21T07:07:33;25.60;99.90
1686;DHT22;840;47.980;7.830;2023-08-21T07:10:00;25.60;99.90
1686;DHT22;840;47.980;7.830;2023-08-21T07:12:28;25.60;99.90
1686;DHT22;840;47.980;7.830;2023-08-21T07:14:56;25.70;99.90
1686;DHT22;840;47.980;7.830;2023-08-21T07:17:22;25.70;99.90
1686;DHT22;840;47.980;7.830;2023-08-21T07:19:49;25.70;99.90
1686;DHT22;840;47.980;7.830;2023-08-21T07:22:19;25.70;99.90
1686;DHT22;840;47.980;7.830;2023-08-21T07:24:46;25.70;99.90
1686;DHT22;840;47.980;7.830;2023-08-21T07:27:13;25.80;99.90
1686;DHT22;840;47.980;7.830;2023-08-21T07:29:40;25.80;99.90
1686;DHT22;840;47.980;7.830;2023-08-21T07:32:09;25.80;99.90
1686;DHT22;840;47.980;7.830;2023-08-21T07:34:42;25.80;99.90
1686;DHT22;840;47.980;7.830;2023-08-21T07:37:08;25.80;99.90
1686;DHT22;840;47.980;7.830;2023-08-21T07:39:36;25.80;99.90
1686;DHT22;840;47.980;7.830;2023-08-21T07:42:03;25.80;99.90
1686;DHT22;840;47.980;7.830;2023-08-21T07:44:30;25.80;99.90
1686;DHT22;840;47.980;7.830;2023-08-21T07:46:57;25.80;99.90
1686;DHT22;840;47.980;7.830;2023-08-21T07:49:24;25.90;99.90
1686;DHT22;840;47.980;7.830;2023-08-21T07:51:50;25.90;99.90
1686;DHT22;840;47.980;7.830;2023-08-21T07:54:17;25.90;99.90
1686;DHT22;840;47.980;7.830;2023-08-21T07:56:45;26.00;99.90
1686;DHT22;840;47.980;7.830;2023-08-21T07:59:12;26.00;99.90
1686;DHT22;840;47.980;7.830;2023-08-21T08:01:39;26.10;99.90
1686;DHT22;840;47.980;7.830;2023-08-21T08:04:05;26.20;99.90
1686;DHT22;840;47.980;7.830;2023-08-21T08:06:32;26.30;99.90
1686;DHT22;840;47.980;7.830;2023-08-21T08:08:59;26.30;99.90
1686;DHT22;840;47.980;7.830;2023-08-21T08:11:26;26.40;99.90
1686;DHT22;840;47.980;7.830;2023-08-21T08:13:54;26.50;99.90
1686;DHT22;840;47.980;7.830;2023-08-21T08:16:21;26.60;99.90
1686;DHT22;840;47.980;7.830;2023-08-21T08:18:48;26.70;99.90
1686;DHT22;840;47.980;7.830;2023-08-21T08:21:16;26.70;99.90
1686;DHT22;840;47.980;7.830;2023-08-21T08:23:43;26.80;99.90
1686;DHT22;840;47.980;7.830;2023-08-21T08:26:09;26.80;99.90
1686;DHT22;840;47.980;7.830;2023-08-21T08:28:36;26.80;99.90
1686;DHT22;840;47.980;7.830;2023-08-21T08:31:04;26.90;99.90
1686;DHT22;840;47.980;7.830;2023-08-21T08:33:31;27.00;99.90
1686;DHT22;840;47.980;7.830;2023-08-21T08:35:58;27.00;99.90
1686;DHT22;840;47.980;7.830;2023-08-21T08:38:24;27.10;99.90
1686;DHT22;840;47.980;7.830;2023-08-21T08:40:53;27.10;99.90
1686;DHT22;840;47.980;7.830;2023-08-21T08:43:21;27.20;99.90
1686;DHT22;840;47.980;7.830;2023-08-21T08:45:49;27.20;99.90
1686;DHT22;840;47.980;7.830;2023-08-21T08:48:19;27.20;99.90
1686;DHT22;840;47.980;7.830;2023-08-21T08:50:47;27.30;99.90
1686;DHT22;840;47.980;7.830;2023-08-21T08:53:18;27.40;99.90
1686;DHT22;840;47.980;7.830;2023-08-21T08:55:45;27.40;99.90
1686;DHT22;840;47.980;7.830;2023-08-21T08:58:12;27.50;99.90
1686;DHT22;840;47.980;7.830;2023-08-21T09:00:38;27.60;99.90
1686;DHT22;840;47.980;7.830;2023-08-21T09:03:05;27.60;99.90
1686;DHT22;840;47.980;7.830;2023-08-21T09:05:34;27.70;99.90
1686;DHT22;840;47.980;7.830;2023-08-21T09:08:10;27.80;99.90
1686;DHT22;840;47.980;7.830;2023-08-21T09:10:38;27.80;99.90
1686;DHT22;840;47.980;7.830;2023-08-21T09:13:12;27.90;99.90
1686;DHT22;840;47.980;7.830;2023-08-21T09:15:41;28.00;99.90
1686;DHT22;840;47.980;7.830;2023-08-21T09:18:09;28.00;99.90
1686;DHT22;840;47.980;7.830;2023-08-21T09:20:38;28.00;99.90
1686;DHT22;840;47.980;7.830;2023-08-21T09:23:05;28.10;99.90
1686;DHT22;840;47.980;7.830;2023-08-21T09:25:35;28.20;99.90
1686;DHT22;840;47.980;7.830;2023-08-21T09:28:05;28.30;99.90
1686;DHT22;840;47.980;7.830;2023-08-21T09:30:47;28.30;99.90
1686;DHT22;840;47.980;7.830;2023-08-21T09:33:17;28.40;99.90
1686;DHT22;840;47.980;7.830;2023-08-21T09:35:45;28.50;99.90
1686;DHT22;840;47.980;7.830;2023-08-21T09:38:12;28.60;99.90
1686;DHT22;840;47.980;7.830;2023-08-21T09:40:40;28.60;99.90
1686;DHT22;840;47.980;7.830;2023-08-21T09:43:08;28.70;99.90
1686;DHT22;840;47.980;7.830;2023-08-21T09:45:35;28.80;99.90
1686;DHT22;840;47.980;7.830;2023-08-21T09:48:03;28.80;99.90
1686;DHT22;840;47.980;7.830;2023-08-21T09:50:30;28.80;99.90
1686;DHT22;840;47.980;7.830;2023-08-21T09:52:58;28.80;99.90
1686;DHT22;840;47.980;7.830;2023-08-21T09:55:25;28.90;99.90
1686;DHT22;840;47.980;7.830;2023-08-21T09:57:57;29.00;99.90
1686;DHT22;840;47.980;7.830;2023-08-21T10:00:28;29.00;99.90
1686;DHT22;840;47.980;7.830;2023-08-21T10:02:59;29.10;99.90
1686;DHT22;840;47.980;7.830;2023-08-21T10:05:27;29.20;99.90
1686;DHT22;840;47.980;7.830;2023-08-21T10:07:55;29.20;99.90
1686;DHT22;840;47.980;7.830;2023-08-21T10:10:24;29.20;99.90
1686;DHT22;840;47.980;7.830;2023-08-21T10:12:50;29.20;99.90
1686;DHT22;840;47.980;7.830;2023-08-21T10:15:17;29.30;99.90
1686;DHT22;840;47.980;7.830;2023-08-21T10:17:44;29.30;99.90
1686;DHT22;840;47.980;7.830;2023-08-21T10:20:11;29.40;99.90
1686;DHT22;840;47.980;7.830;2023-08-21T10:22:43;29.40;99.90
1686;DHT22;840;47.980;7.830;2023-08-21T10:25:15;29.40;99.90
1686;DHT22;840;47.980;7.830;2023-08-21T10:27:43;29.50;99.90
1686;DHT22;840;47.980;7.830;2023-08-21T10:30:13;29.50;99.90
1686;DHT22;840;47.980;7.830;2023-08-21T10:32:45;29.60;99.90
1686;DHT22;840;47.980;7.830;2023-08-21T10:35:14;29.70;99.90
1686;DHT22;840;47.980;7.830;2023-08-21T10:38:06;29.70;99.90
1686;DHT22;840;47.980;7.830;2023-08-21T10:40:33;29.80;99.90
1686;DHT22;840;47.980;7.830;2023-08-21T10:43:01;29.70;99.90
1686;DHT22;840;47.980;7.830;2023-08-21T10:45:29;29.70;99.90
1686;DHT22;840;47.980;7.830;2023-08-21T10:47:57;29.80;99.90
1686;DHT22;840;47.980;7.830;2023-08-21T10:50:24;29.80;99.90
1686;DHT22;840;47.980;7.830;2023-08-21T10:52:52;29.80;99.90
1686;DHT22;840;47.980;7.830;2023-08-21T10:55:20;29.90;99.90
1686;DHT22;840;47.980;7.830;2023-08-21T10:57:47;29.90;99.90
1686;DHT22;840;47.980;7.830;2023-08-21T11:00:17;30.00;99.90
1686;DHT22;840;47.980;7.830;2023-08-21T11:02:45;30.00;99.90
1686;DHT22;840;47.980;7.830;2023-08-21T11:05:13;30.10;99.90
1686;DHT22;840;47.980;7.830;2023-08-21T11:07:41;30.10;99.90
1686;DHT22;840;47.980;7.830;2023-08-21T11:10:11;30.10;99.90
1686;DHT22;840;47.980;7.830;2023-08-21T11:12:40;30.10;99.90
1686;DHT22;840;47.980;7.830;2023-08-21T11:15:16;30.20;99.90
1686;DHT22;840;47.980;7.830;2023-08-21T11:17:50;30.20;99.90
1686;DHT22;840;47.980;7.830;2023-08-21T11:20:17;30.30;99.90
1686;DHT22;840;47.980;7.830;2023-08-21T11:22:43;30.30;99.90
1686;DHT22;840;47.980;7.830;2023-08-21T11:25:10;30.30;99.90
1686;DHT22;840;47.980;7.830;2023-08-21T11:27:37;30.40;99.90
1686;DHT22;840;47.980;7.830;2023-08-21T11:30:06;30.40;99.90
1686;DHT22;840;47.980;7.830;2023-08-21T11:32:34;30.40;99.90
1686;DHT22;840;47.980;7.830;2023-08-21T11:35:01;30.50;99.90
1686;DHT22;840;47.980;7.830;2023-08-21T11:37:29;30.50;99.90
1686;DHT22;840;47.980;7.830;2023-08-21T11:39:56;30.60;99.90
1686;DHT22;840;47.980;7.830;2023-08-21T11:42:29;30.60;99.90
1686;DHT22;840;47.980;7.830;2023-08-21T11:44:57;30.70;99.90
1686;DHT22;840;47.980;7.830;2023-08-21T11:47:30;30.70;99.90
1686;DHT22;840;47.980;7.830;2023-08-21T11:50:02;30.80;99.90
1686;DHT22;840;47.980;7.830;2023-08-21T11:52:30;30.90;99.90
1686;DHT22;840;47.980;7.830;2023-08-21T11:54:57;30.90;99.90
1686;DHT22;840;47.980;7.830;2023-08-21T11:57:24;31.00;99.90
1686;DHT22;840;47.980;7.830;2023-08-21T11:59:51;31.10;99.90
1686;DHT22;840;47.980;7.830;2023-08-21T12:02:21;31.10;99.90
1686;DHT22;840;47.980;7.830;2023-08-21T12:04:52;31.20;99.90
1686;DHT22;840;47.980;7.830;2023-08-21T12:07:21;31.30;99.90
1686;DHT22;840;47.980;7.830;2023-08-21T12:09:48;31.30;99.90
1686;DHT22;840;47.980;7.830;2023-08-21T12:12:15;31.40;99.90
1686;DHT22;840;47.980;7.830;2023-08-21T12:14:42;31.50;99.90
1686;DHT22;840;47.980;7.830;2023-08-21T12:17:09;31.50;99.90
1686;DHT22;840;47.980;7.830;2023-08-21T12:19:35;31.50;99.90
1686;DHT22;840;47.980;7.830;2023-08-21T12:22:03;31.60;99.90
1686;DHT22;840;47.980;7.830;2023-08-21T12:24:31;31.70;99.90
1686;DHT22;840;47.980;7.830;2023-08-21T12:26:58;31.80;99.90
1686;DHT22;840;47.980;7.830;2023-08-21T12:29:24;32.10;99.90
1686;DHT22;840;47.980;7.830;2023-08-21T12:31:51;32.50;99.90
1686;DHT22;840;47.980;7.830;2023-08-21T12:34:18;33.00;99.90
1686;DHT22;840;47.980;7.830;2023-08-21T12:36:44;33.60;99.90
1686;DHT22;840;47.980;7.830;2023-08-21T12:39:11;34.10;99.90
1686;DHT22;840;47.980;7.830;2023-08-21T12:41:40;34.80;99.90
1686;DHT22;840;47.980;7.830;2023-08-21T12:44:07;35.10;99.90
1686;DHT22;840;47.980;7.830;2023-08-21T12:46:34;35.60;99.90
1686;DHT22;840;47.980;7.830;2023-08-21T12:49:01;36.30;99.90
1686;DHT22;840;47.980;7.830;2023-08-21T12:51:29;36.80;99.30
1686;DHT22;840;47.980;7.830;2023-08-21T12:53:56;37.30;98.30
1686;DHT22;840;47.980;7.830;2023-08-21T12:56:23;37.80;97.20
1686;DHT22;840;47.980;7.830;2023-08-21T12:58:51;38.10;96.00
1686;DHT22;840;47.980;7.830;2023-08-21T13:01:18;38.20;94.20
1686;DHT22;840;47.980;7.830;2023-08-21T13:03:45;38.10;94.40
1686;DHT22;840;47.980;7.830;2023-08-21T13:06:12;38.40;93.30
1686;DHT22;840;47.980;7.830;2023-08-21T13:08:39;38.60;92.40
1686;DHT22;840;47.980;7.830;2023-08-21T13:11:06;38.50;92.00
1686;DHT22;840;47.980;7.830;2023-08-21T13:13:33;38.60;91.70
1686;DHT22;840;47.980;7.830;2023-08-21T13:16:01;38.80;92.30
1686;DHT22;840;47.980;7.830;2023-08-21T13:18:29;38.90;93.80
1686;DHT22;840;47.980;7.830;2023-08-21T13:20:56;38.60;91.20
1686;DHT22;840;47.980;7.830;2023-08-21T13:23:22;38.10;91.40
1686;DHT22;840;47.980;7.830;2023-08-21T13:25:49;37.40;92.10
1686;DHT22;840;47.980;7.830;2023-08-21T13:28:16;37.30;92.00
1686;DHT22;840;47.980;7.830;2023-08-21T13:30:43;37.40;92.60
1686;DHT22;840;47.980;7.830;2023-08-21T13:33:13;37.60;93.50
1686;DHT22;840;47.980;7.830;2023-08-21T13:35:40;37.80;92.30
1686;DHT22;840;47.980;7.830;2023-08-21T13:38:07;38.00;91.20
1686;DHT22;840;47.980;7.830;2023-08-21T13:40:34;37.80;91.60
1686;DHT22;840;47.980;7.830;2023-08-21T13:43:00;37.60;91.50
1686;DHT22;840;47.980;7.830;2023-08-21T13:45:28;37.70;92.60
1686;DHT22;840;47.980;7.830;2023-08-21T13:47:55;37.70;91.10
1686;DHT22;840;47.980;7.830;2023-08-21T13:50:23;37.70;91.20
1686;DHT22;840;47.980;7.830;2023-08-21T13:52:50;37.60;91.00
1686;DHT22;840;47.980;7.830;2023-08-21T13:55:17;37.60;92.20
1686;DHT22;840;47.980;7.830;2023-08-21T13:57:44;37.20;90.50
1686;DHT22;840;47.980;7.830;2023-08-21T14:00:12;36.80;91.30
1686;DHT22;840;47.980;7.830;2023-08-21T14:02:39;36.60;91.60
1686;DHT22;840;47.980;7.830;2023-08-21T14:05:07;36.40;90.90
1686;DHT22;840;47.980;7.830;2023-08-21T14:07:37;36.30;90.70
1686;DHT22;840;47.980;7.830;2023-08-21T14:10:05;36.50;92.30
1686;DHT22;840;47.980;7.830;2023-08-21T14:12:32;36.70;90.70
1686;DHT22;840;47.980;7.830;2023-08-21T14:14:59;36.60;90.70
1686;DHT22;840;47.980;7.830;2023-08-21T14:17:26;36.70;90.70
1686;DHT22;840;47.980;7.830;2023-08-21T14:19:53;36.70;90.30
1686;DHT22;840;47.980;7.830;2023-08-21T14:22:20;36.80;90.20
1686;DHT22;840;47.980;7.830;2023-08-21T14:24:48;36.80;89.10
1686;DHT22;840;47.980;7.830;2023-08-21T14:27:15;36.60;89.00
1686;DHT22;840;47.980;7.830;2023-08-21T14:29:42;36.60;89.60
1686;DHT22;840;47.980;7.830;2023-08-21T14:32:09;36.60;90.10
1686;DHT22;840;47.980;7.830;2023-08-21T14:34:36;36.70;88.90
1686;DHT22;840;47.980;7.830;2023-08-21T14:37:03;36.70;87.50
1686;DHT22;840;47.980;7.830;2023-08-21T14:39:30;37.00;86.90
1686;DHT22;840;47.980;7.830;2023-08-21T14:41:59;37.10;87.90
1686;DHT22;840;47.980;7.830;2023-08-21T14:44:27;37.40;85.90
1686;DHT22;840;47.980;7.830;2023-08-21T14:46:54;37.50;86.60
1686;DHT22;840;47.980;7.830;2023-08-21T14:49:21;37.90;88.90
1686;DHT22;840;47.980;7.830;2023-08-21T14:51:48;38.20;85.60
1686;DHT22;840;47.980;7.830;2023-08-21T14:54:15;38.50;83.50
1686;DHT22;840;47.980;7.830;2023-08-21T14:56:42;38.70;83.90
1686;DHT22;840;47.980;7.830;2023-08-21T14:59:10;38.50;78.10
1686;DHT22;840;47.980;7.830;2023-08-21T15:01:37;38.20;78.00
1686;DHT22;840;47.980;7.830;2023-08-21T15:04:04;38.00;79.00
1686;DHT22;840;47.980;7.830;2023-08-21T15:06:31;37.70;81.20
1686;DHT22;840;47.980;7.830;2023-08-21T15:08:58;37.40;82.60
1686;DHT22;840;47.980;7.830;2023-08-21T15:11:24;37.30;83.40
1686;DHT22;840;47.980;7.830;2023-08-21T15:13:51;37.10;85.20
1686;DHT22;840;47.980;7.830;2023-08-21T15:16:19;36.80;84.80
1686;DHT22;840;47.980;7.830;2023-08-21T15:18:46;37.00;85.80
1686;DHT22;840;47.980;7.830;2023-08-21T15:21:17;36.90;85.90
1686;DHT22;840;47.980;7.830;2023-08-21T15:23:43;36.90;85.80
1686;DHT22;840;47.980;7.830;2023-08-21T15:26:10;37.10;84.50
1686;DHT22;840;47.980;7.830;2023-08-21T15:28:37;37.30;83.70
1686;DHT22;840;47.980;7.830;2023-08-21T15:31:03;37.40;84.30
1686;DHT22;840;47.980;7.830;2023-08-21T15:33:33;37.50;82.80
1686;DHT22;840;47.980;7.830;2023-08-21T15:36:00;37.40;84.00
1686;DHT22;840;47.980;7.830;2023-08-21T15:38:26;37.40;84.10
1686;DHT22;840;47.980;7.830;2023-08-21T15:40:53;37.40;83.50
1686;DHT22;840;47.980;7.830;2023-08-21T15:43:20;37.40;82.90
1686;DHT22;840;47.980;7.830;2023-08-21T15:45:46;37.20;82.80
1686;DHT22;840;47.980;7.830;2023-08-21T15:48:13;37.10;82.30
1686;DHT22;840;47.980;7.830;2023-08-21T15:50:44;37.10;82.30
1686;DHT22;840;47.980;7.830;2023-08-21T15:53:11;37.10;82.50
1686;DHT22;840;47.980;7.830;2023-08-21T15:55:39;37.20;81.60
1686;DHT22;840;47.980;7.830;2023-08-21T15:58:05;37.30;83.20
1686;DHT22;840;47.980;7.830;2023-08-21T16:00:33;37.40;83.40
1686;DHT22;840;47.980;7.830;2023-08-21T16:03:00;37.40;83.40
1686;DHT22;840;47.980;7.830;2023-08-21T16:05:26;37.40;82.10
1686;DHT22;840;47.980;7.830;2023-08-21T16:07:54;37.30;83.20
1686;DHT22;840;47.980;7.830;2023-08-21T16:10:21;37.40;83.60
1686;DHT22;840;47.980;7.830;2023-08-21T16:12:48;37.30;83.00
1686;DHT22;840;47.980;7.830;2023-08-21T16:15:15;37.30;83.10
1686;DHT22;840;47.980;7.830;2023-08-21T16:17:41;37.30;82.30
1686;DHT22;840;47.980;7.830;2023-08-21T16:20:09;37.10;83.10